Time;durP1;ratioP1;P1;durP2;ratioP2;P2;SDS_P1;SDS_P2;PMS_P1;PMS_P2;Temp;Humidity;BMP_temperature;BMP_pressure;BME280_temperature;BME280_humidity;BME280_pressure;Samples;Min_cycle;Max_cycle;Signal;HPM_P1;HPM_P2
2022/01/10 00:00:21;;;;;;;17.77;11.17;;;;;;;-1.95;100.00;100851.06;2090642;28;20031;-70
2022/01/10 00:01:27;;;;;;;20.33;10.10;;;;;;;-1.94;100.00;100857.88;2090649;28;20444;-70
2022/01/10 00:02:27;;;;;;;18.40;10.57;;;;;;;-1.96;100.00;100852.75;2090531;28;20410;-70
2022/01/10 00:03:27;;;;;;;19.30;8.40;;;;;;;-2.01;100.00;100859.53;2090601;28;20036;-70
2022/01/10 00:04:28;;;;;;;18.50;9.10;;;;;;;-2.07;100.00;100854.34;2090668;28;20045;-70
2022/01/10 00:05:28;;;;;;;17.70;9.90;;;;;;;-2.11;100.00;100853.47;2090563;28;20024;-70
2022/01/10 00:06:28;;;;;;;18.20;9.77;;;;;;;-2.11;100.00;100866.25;2090466;28;20029;-70
2022/01/10 00:07:28;;;;;;;24.27;11.40;;;;;;;-2.05;100.00;100869.69;2090618;28;20028;-71
2022/01/10 00:08:30;;;;;;;19.10;10.30;;;;;;;-2.01;100.00;100866.31;2090584;28;20025;-70
2022/01/10 00:09:30;;;;;;;19.65;10.23;;;;;;;-1.97;100.00;100873.19;2090625;28;20032;-71
2022/01/10 00:10:31;;;;;;;25.70;10.27;;;;;;;-2.00;100.00;100878.25;2090588;28;20036;-71
2022/01/10 00:11:31;;;;;;;20.35;9.27;;;;;;;-2.02;100.00;100874.84;2098158;28;20059;-71
2022/01/10 00:12:32;;;;;;;18.07;10.03;;;;;;;-2.02;100.00;100879.97;2098220;28;20421;-71
2022/01/10 00:13:32;;;;;;;16.57;9.37;;;;;;;-2.02;100.00;100875.69;2089931;28;20502;-70
2022/01/10 00:14:32;;;;;;;17.30;10.40;;;;;;;-2.03;100.00;100884.22;2089809;28;20156;-71
2022/01/10 00:15:33;;;;;;;24.43;11.73;;;;;;;-1.97;100.00;100891.09;2090532;28;20085;-71
2022/01/10 00:16:33;;;;;;;20.27;9.93;;;;;;;-2.01;100.00;100891.91;2090521;28;20017;-71
2022/01/10 00:17:36;;;;;;;21.67;10.43;;;;;;;-2.07;100.00;100885.91;2090496;28;20017;-71
2022/01/10 00:18:36;;;;;;;27.27;10.43;;;;;;;-2.11;100.00;100890.94;2090479;28;20021;-70
2022/01/10 00:19:37;;;;;;;17.87;10.47;;;;;;;-2.17;100.00;100888.31;2089837;28;20478;-70
2022/01/10 00:20:37;;;;;;;22.30;10.70;;;;;;;-2.14;100.00;100891.78;2089872;28;20051;-70
2022/01/10 00:21:37;;;;;;;20.93;10.80;;;;;;;-2.17;100.00;100888.31;2090462;28;20500;-70
2022/01/10 00:22:40;;;;;;;26.70;12.00;;;;;;;-2.20;100.00;100894.25;2089788;28;20056;-70
2022/01/10 00:23:40;;;;;;;23.45;11.70;;;;;;;-2.13;100.00;100900.28;2089857;28;20078;-71
2022/01/10 00:24:40;;;;;;;20.87;11.47;;;;;;;-2.06;100.00;100894.41;2090467;28;20528;-71
2022/01/10 00:25:41;;;;;;;24.63;11.97;;;;;;;-2.07;100.00;100897.81;2090523;28;20032;-70
2022/01/10 00:26:41;;;;;;;25.70;12.97;;;;;;;-2.12;100.00;100897.75;2090094;28;20447;-70
2022/01/10 00:27:42;;;;;;;23.27;11.13;;;;;;;-2.13;100.00;100898.59;2090360;28;20025;-71
2022/01/10 00:28:42;;;;;;;24.70;12.18;;;;;;;-2.12;100.00;100895.19;2090398;28;20032;-71
2022/01/10 00:29:43;;;;;;;22.70;13.00;;;;;;;-2.15;100.00;100895.19;2090385;28;20096;-71
2022/01/10 00:30:43;;;;;;;21.30;10.63;;;;;;;-2.19;100.00;100895.97;2090301;28;20032;-70
2022/01/10 00:31:43;;;;;;;27.83;11.03;;;;;;;-2.20;100.00;100892.56;2090356;28;20079;-70
2022/01/10 00:32:44;;;;;;;19.40;10.17;;;;;;;-2.17;100.00;100891.75;2089740;28;20028;-71
2022/01/10 00:33:45;;;;;;;21.60;11.25;;;;;;;-2.16;100.00;100896.00;2089782;28;20033;-71
2022/01/10 00:34:45;;;;;;;24.27;11.30;;;;;;;-2.13;100.00;100893.47;2089644;28;20031;-70
2022/01/10 00:35:46;;;;;;;22.70;10.57;;;;;;;-2.11;100.00;100890.94;2089759;28;20028;-69
2022/01/10 00:36:47;;;;;;;19.00;11.90;;;;;;;-2.12;100.00;100899.47;2090309;28;20025;-70
2022/01/10 00:37:47;;;;;;;20.77;12.13;;;;;;;-2.10;100.00;100893.53;2089659;28;20071;-71
2022/01/10 00:38:48;;;;;;;17.52;10.80;;;;;;;-2.05;100.00;100890.16;2089702;28;20104;-70
2022/01/10 00:39:49;;;;;;;20.43;10.33;;;;;;;-2.07;100.00;100898.69;2089585;28;20064;-70
2022/01/10 00:40:51;;;;;;;21.85;10.90;;;;;;;-2.05;100.00;100895.28;2089763;28;20023;-70
2022/01/10 00:41:51;;;;;;;19.05;10.85;;;;;;;-2.04;100.00;100896.97;2090287;28;20020;-70
2022/01/10 00:42:56;;;;;;;19.90;11.50;;;;;;;-2.06;100.00;100899.53;2097907;28;20032;-71
2022/01/10 00:43:57;;;;;;;22.40;11.57;;;;;;;-2.11;100.00;100901.19;2097371;28;20020;-71
2022/01/10 00:45:01;;;;;;;;;;;;;;;-2.20;100.00;100902.78;2090656;28;20028;-70
2022/01/10 00:46:03;;;;;;;19.50;9.77;;;;;;;-2.17;100.00;100901.09;2090156;28;19916;-70
2022/01/10 00:47:03;;;;;;;19.15;11.75;;;;;;;-2.19;100.00;100908.75;2090182;28;20021;-70
2022/01/10 00:48:04;;;;;;;17.60;10.23;;;;;;;-2.19;100.00;100903.63;2090223;28;20025;-70
2022/01/10 00:49:04;;;;;;;19.47;11.10;;;;;;;-2.15;100.00;100904.53;2090243;28;20039;-71
2022/01/10 00:50:05;;;;;;;13.98;9.70;;;;;;;-2.12;100.00;100910.53;2089472;28;20442;-71
2022/01/10 00:51:06;;;;;;;24.10;10.77;;;;;;;-2.11;100.00;100911.41;2089524;28;20017;-71
2022/01/10 00:52:06;;;;;;;18.83;10.57;;;;;;;-2.12;100.00;100910.53;2090227;28;20020;-71
2022/01/10 00:53:06;;;;;;;20.13;11.43;;;;;;;-2.13;100.00;100908.81;2089455;28;20501;-70
2022/01/10 00:54:06;;;;;;;16.33;10.30;;;;;;;-2.14;100.00;100913.94;2089632;28;20076;-70
2022/01/10 00:55:07;;;;;;;20.63;10.23;;;;;;;-2.15;100.00;100927.56;2090186;28;20024;-71
2022/01/10 00:56:09;;;;;;;22.38;11.18;;;;;;;-2.21;100.00;100920.69;2090255;28;20017;-71
2022/01/10 00:57:09;;;;;;;20.00;10.05;;;;;;;-2.26;100.00;100932.56;2089786;28;20068;-70
2022/01/10 00:58:09;;;;;;;20.37;10.73;;;;;;;-2.26;100.00;100932.56;2089557;28;20040;-70
2022/01/10 00:59:10;;;;;;;21.63;10.77;;;;;;;-2.24;100.00;100930.84;2089515;28;20036;-71
2022/01/10 01:00:13;;;;;;;19.33;10.57;;;;;;;-2.22;100.00;100932.59;2089593;28;20058;-71
2022/01/10 01:01:14;;;;;;;19.98;10.57;;;;;;;-2.24;100.00;100941.09;2090081;28;20101;-70
2022/01/10 01:02:14;;;;;;;22.48;10.50;;;;;;;-2.24;100.00;100938.53;2090095;28;20418;-70
2022/01/10 01:03:14;;;;;;;21.20;11.80;;;;;;;-2.19;100.00;100944.53;2089979;28;20072;-70
2022/01/10 01:04:15;;;;;;;24.93;12.13;;;;;;;-2.18;100.00;100936.06;2090109;28;20037;-70
2022/01/10 01:05:18;;;;;;;18.70;11.60;;;;;;;-2.23;100.00;100948.78;2097736;28;20032;-70
2022/01/10 01:06:18;;;;;;;18.13;9.93;;;;;;;-2.26;100.00;100947.91;2097496;28;20032;-71
2022/01/10 01:07:19;;;;;;;21.27;11.50;;;;;;;-2.28;100.00;100947.88;2089996;28;20159;-70
2022/01/10 01:08:19;;;;;;;16.93;9.57;;;;;;;-2.29;100.00;100946.13;2090126;28;20035;-70
2022/01/10 01:09:25;;;;;;;19.13;10.00;;;;;;;-2.24;100.00;100951.31;2090142;28;20029;-72
2022/01/10 01:12:42;;;;;;;18.73;10.15;;;;;;;-2.27;100.00;100952.13;2090241;28;20511;-71
2022/01/10 01:13:59;;;;;;;20.65;11.25;;;;;;;-2.30;100.00;100956.38;2090063;28;20521;-71
2022/01/10 01:15:17;;;;;;;14.27;8.73;;;;;;;-2.28;100.00;100959.78;2090139;28;20021;-71
2022/01/10 01:16:30;;;;;;;18.52;10.45;;;;;;;-2.33;100.00;100963.16;2090076;28;20025;-71
2022/01/10 01:24:52;;;;;;;18.05;10.63;;;;;;;-2.42;100.00;100982.63;2090095;28;20044;-70
2022/01/10 01:25:54;;;;;;;17.83;10.33;;;;;;;-2.40;100.00;100986.06;2089333;28;20040;-70
2022/01/10 01:26:55;;;;;;;19.58;9.68;;;;;;;-2.36;100.00;100983.56;2089116;28;20045;-70
2022/01/10 01:27:55;;;;;;;19.30;10.45;;;;;;;-2.33;100.00;100986.16;2089950;28;20394;-70
2022/01/10 01:28:56;;;;;;;18.03;10.60;;;;;;;-2.35;100.00;100990.41;2089308;28;20021;-71
2022/01/10 01:29:56;;;;;;;15.02;9.13;;;;;;;-2.35;100.00;100987.84;2089340;28;20098;-70
2022/01/10 01:30:57;;;;;;;20.00;10.03;;;;;;;-2.33;100.00;100986.16;2090014;28;20520;-71
2022/01/10 01:31:57;;;;;;;17.52;9.95;;;;;;;-2.38;100.00;100980.13;2089247;28;20013;-70
2022/01/10 01:32:59;;;;;;;18.43;10.37;;;;;;;-2.36;100.00;100988.66;2089451;28;20025;-71
2022/01/10 01:33:59;;;;;;;18.23;9.75;;;;;;;-2.35;100.00;100990.41;2090015;28;20021;-71
2022/01/10 01:35:05;;;;;;;15.73;9.63;;;;;;;-2.37;100.00;100994.63;2089986;28;20439;-71
2022/01/10 01:36:06;;;;;;;14.32;9.25;;;;;;;-2.30;100.00;101000.66;2089264;28;20056;-71
2022/01/10 01:37:09;;;;;;;15.30;10.93;;;;;;;-2.27;100.00;101003.28;2089363;28;20132;-70
2022/01/10 01:38:09;;;;;;;19.63;10.63;;;;;;;-2.31;100.00;100998.09;2090000;28;20158;-70
2022/01/10 01:39:23;;;;;;;16.23;9.00;;;;;;;-2.37;100.00;101001.41;2089227;28;20052;-70
2022/01/10 01:40:27;;;;;;;15.93;9.15;;;;;;;-2.39;100.00;101009.06;2089595;28;20104;-70
2022/01/10 01:42:34;;;;;;;16.33;9.80;;;;;;;-2.28;100.00;101008.38;2090086;28;20040;-70
2022/01/10 01:43:35;;;;;;;21.20;9.98;;;;;;;-2.29;100.00;101011.78;2089297;28;20029;-72
2022/01/10 01:44:35;;;;;;;19.30;9.77;;;;;;;-2.33;100.00;101011.72;2081096;28;20100;-71
2022/01/10 01:45:47;;;;;;;24.27;10.20;;;;;;;-2.30;100.00;101010.91;2089356;28;20100;-71
2022/01/10 01:46:47;;;;;;;;;;;;;;;-2.25;100.00;101011.84;2090338;28;20053;-71
2022/01/10 01:47:47;;;;;;;19.67;9.80;;;;;;;-2.23;100.00;101019.50;2090008;28;19908;-71
2022/01/10 01:48:49;;;;;;;14.73;9.43;;;;;;;-2.26;100.00;101024.59;2090000;28;20389;-71
2022/01/10 01:49:49;;;;;;;18.83;10.27;;;;;;;-2.29;100.00;101019.44;2089902;28;20492;-71
2022/01/10 01:50:49;;;;;;;16.93;9.90;;;;;;;-2.29;100.00;101029.66;2090045;28;20021;-71
2022/01/10 01:51:50;;;;;;;15.60;9.70;;;;;;;-2.31;100.00;101031.31;2089864;28;20025;-70
2022/01/10 01:52:50;;;;;;;19.70;10.77;;;;;;;-2.32;100.00;101025.38;2089992;28;20025;-71
2022/01/10 01:53:52;;;;;;;19.50;10.27;;;;;;;-2.34;100.00;101027.03;2089942;28;20406;-71
2022/01/10 01:54:53;;;;;;;15.35;10.18;;;;;;;-2.35;100.00;101036.41;2089941;28;20498;-71
2022/01/10 01:55:54;;;;;;;15.98;9.90;;;;;;;-2.33;100.00;101033.84;2089931;28;20049;-71
2022/01/10 01:56:54;;;;;;;22.30;10.73;;;;;;;-2.35;100.00;101033.88;2089923;28;20457;-71
2022/01/10 01:57:56;;;;;;;17.35;9.52;;;;;;;-2.38;100.00;101033.81;2089905;28;20103;-71
2022/01/10 01:58:56;;;;;;;18.75;10.20;;;;;;;-2.42;100.00;101039.72;2089965;28;20104;-71
2022/01/10 01:59:57;;;;;;;17.73;10.02;;;;;;;-2.42;100.00;101038.84;2097500;28;20023;-71
2022/01/10 02:00:57;;;;;;;18.87;9.90;;;;;;;-2.44;100.00;101046.50;2097542;28;20016;-71
2022/01/10 02:01:58;;;;;;;19.17;10.18;;;;;;;-2.46;100.00;101041.34;2089813;28;20057;-71
2022/01/10 02:02:58;;;;;;;17.40;10.30;;;;;;;-2.48;100.00;101037.06;2089250;28;20013;-72
2022/01/10 02:03:58;;;;;;;20.63;11.23;;;;;;;-2.48;100.00;101049.84;2080897;28;20021;-71
2022/01/10 02:04:59;;;;;;;16.27;11.00;;;;;;;-2.48;100.00;101048.16;2080902;28;20021;-71
2022/01/10 02:06:02;;;;;;;19.10;9.67;;;;;;;-2.43;100.00;101049.94;2089236;28;20066;-71
2022/01/10 02:07:02;;;;;;;16.33;10.02;;;;;;;-2.43;100.00;101048.22;2089819;28;20021;-71
2022/01/10 02:08:03;;;;;;;23.75;10.57;;;;;;;-2.43;100.00;101050.75;2097493;28;20558;-71
2022/01/10 02:09:03;;;;;;;16.88;11.32;;;;;;;-2.38;100.00;101041.50;2097900;28;20047;-71
2022/01/10 02:10:05;;;;;;;14.97;10.27;;;;;;;-2.32;100.00;101053.50;2091455;28;20040;-71
2022/01/10 02:11:08;;;;;;;18.75;10.40;;;;;;;-2.33;100.00;101055.19;2090673;28;20473;-71
2022/01/10 02:12:08;;;;;;;17.42;11.00;;;;;;;-2.34;100.00;101050.91;2082672;28;20394;-71
2022/01/10 02:13:08;;;;;;;17.83;10.60;;;;;;;-2.34;100.00;101048.34;2090823;28;20028;-70
2022/01/10 02:14:09;;;;;;;16.33;9.83;;;;;;;-2.37;100.00;101052.56;2098894;28;20077;-70
2022/01/10 02:15:28;;;;;;;18.20;11.00;;;;;;;-2.39;100.00;101052.53;2099072;28;20063;-71
2022/01/10 02:16:40;;;;;;;17.00;11.02;;;;;;;-2.39;100.00;101054.25;2091417;28;20025;-70
2022/01/10 02:17:44;;;;;;;21.58;10.95;;;;;;;-2.43;100.00;101052.47;2091415;28;20482;-70
2022/01/10 02:18:45;;;;;;;18.70;9.40;;;;;;;-2.47;100.00;101051.56;2091419;28;20021;-71
2022/01/10 02:19:58;;;;;;;18.47;10.43;;;;;;;-2.47;100.00;101047.31;2091499;28;20045;-71
2022/01/10 02:21:04;;;;;;;19.58;10.50;;;;;;;-2.45;100.00;101052.47;2091371;28;20106;-70
2022/01/10 02:22:05;;;;;;;16.67;10.05;;;;;;;-2.47;100.00;101056.66;2091399;28;20024;-70
2022/01/10 02:23:05;;;;;;;20.20;11.17;;;;;;;-2.51;100.00;101054.91;2091381;28;20116;-71
2022/01/10 02:24:06;;;;;;;19.00;10.20;;;;;;;-2.53;100.00;101054.88;2091463;28;20083;-71
2022/01/10 02:25:06;;;;;;;17.45;9.68;;;;;;;-2.55;100.00;101054.00;2091350;28;20155;-70
2022/01/10 02:26:07;;;;;;;17.58;10.25;;;;;;;-2.57;100.00;101054.84;2091346;28;20021;-71
2022/01/10 02:27:07;;;;;;;16.37;9.97;;;;;;;-2.51;100.00;101060.00;2091323;28;20043;-70
2022/01/10 02:28:08;;;;;;;17.48;10.05;;;;;;;-2.47;100.00;101056.66;2091322;28;20158;-70
2022/01/10 02:29:08;;;;;;;15.40;10.10;;;;;;;-2.44;100.00;101072.06;2091395;28;20493;-70
2022/01/10 02:30:09;;;;;;;18.93;11.03;;;;;;;-2.40;100.00;101067.88;2091408;28;20101;-70
2022/01/10 02:31:09;;;;;;;18.02;10.80;;;;;;;-2.38;100.00;101072.16;2091353;28;20031;-71
2022/01/10 02:32:09;;;;;;;18.50;10.63;;;;;;;-2.40;100.00;101068.72;2091320;28;20070;-70
2022/01/10 02:33:10;;;;;;;17.87;10.33;;;;;;;-2.44;100.00;101069.50;2091389;28;20032;-71
2022/01/10 02:34:11;;;;;;;17.42;10.10;;;;;;;-2.44;100.00;101072.06;2091315;28;20075;-71
2022/01/10 02:35:18;;;;;;;19.45;11.15;;;;;;;-2.40;100.00;101078.94;2098970;28;20024;-71
2022/01/10 02:36:24;;;;;;;17.15;10.80;;;;;;;-2.41;100.00;101079.78;2098117;28;20536;-71
2022/01/10 02:37:31;;;;;;;26.23;10.65;;;;;;;-2.44;100.00;101081.44;2091277;28;20104;-70
2022/01/10 02:38:32;;;;;;;17.20;10.40;;;;;;;-2.48;100.00;101080.53;2091240;28;20060;-70
2022/01/10 02:39:33;;;;;;;21.52;10.00;;;;;;;-2.49;100.00;101079.66;2090630;28;20025;-70
2022/01/10 02:40:34;;;;;;;16.95;10.05;;;;;;;-2.43;100.00;101084.00;2090546;28;20116;-71
2022/01/10 02:41:38;;;;;;;18.42;10.45;;;;;;;-2.46;100.00;101081.41;2090716;28;20024;-71
2022/01/10 02:42:38;;;;;;;14.93;10.65;;;;;;;-2.46;100.00;101089.09;2091216;28;20086;-71
2022/01/10 02:43:38;;;;;;;17.03;10.27;;;;;;;-2.42;100.00;101095.97;2091230;28;20025;-71
2022/01/10 02:44:39;;;;;;;19.83;11.60;;;;;;;-2.37;100.00;101096.88;2091235;28;20048;-71
2022/01/10 02:45:39;;;;;;;17.20;10.73;;;;;;;-2.33;100.00;101095.22;2091185;28;20028;-70
2022/01/10 02:46:40;;;;;;;15.53;10.60;;;;;;;-2.32;100.00;101102.06;2091146;28;20021;-70
2022/01/10 02:47:40;;;;;;;15.35;9.88;;;;;;;-2.33;100.00;101096.09;2090507;28;20021;-70
2022/01/10 02:48:40;;;;;;;13.27;9.70;;;;;;;-2.35;100.00;101097.78;2090647;28;20064;-71
2022/01/10 02:49:41;;;;;;;22.03;11.03;;;;;;;-2.37;100.00;101094.31;2090421;28;20791;-70
2022/01/10 02:50:41;;;;;;;17.10;10.47;;;;;;;-2.34;100.00;101096.06;2090676;28;20163;-70
2022/01/10 02:51:42;;;;;;;13.98;9.95;;;;;;;-2.33;100.00;101103.75;2090494;28;20031;-71
2022/01/10 02:52:43;;;;;;;18.10;10.15;;;;;;;-2.30;100.00;101102.09;2090499;28;20028;-71
2022/01/10 02:53:44;;;;;;;20.90;11.63;;;;;;;-2.25;100.00;101103.03;2090471;28;20033;-70
2022/01/10 02:54:44;;;;;;;18.05;11.02;;;;;;;-2.21;100.00;101105.66;2082202;28;20017;-71
2022/01/10 02:55:44;;;;;;;25.60;11.30;;;;;;;-2.17;100.00;101111.66;2090577;28;20486;-70
2022/01/10 02:56:47;;;;;;;22.13;11.07;;;;;;;-2.16;100.00;101113.38;2090472;28;20444;-70
2022/01/10 02:57:47;;;;;;;22.02;10.70;;;;;;;-2.15;100.00;101110.00;2090428;28;20142;-71
2022/01/10 02:58:47;;;;;;;19.07;11.23;;;;;;;-2.15;100.00;101115.13;2090532;28;20052;-70
2022/01/10 02:59:48;;;;;;;23.13;12.03;;;;;;;-2.14;100.00;101121.94;2091094;28;20117;-71
2022/01/10 03:00:48;;;;;;;20.73;11.30;;;;;;;-2.14;100.00;101121.94;2090429;28;20029;-71
2022/01/10 03:01:50;;;;;;;23.30;11.63;;;;;;;-2.12;100.00;101125.38;2090507;28;20283;-71
2022/01/10 03:02:53;;;;;;;20.08;12.48;;;;;;;-2.13;100.00;101120.22;2091105;28;20036;-71
2022/01/10 03:03:53;;;;;;;16.75;9.80;;;;;;;-2.16;100.00;101121.03;2091108;28;20019;-70
2022/01/10 03:04:54;;;;;;;17.00;10.30;;;;;;;-2.17;100.00;101121.91;2090986;28;20028;-71
2022/01/10 03:05:54;;;;;;;17.00;10.90;;;;;;;-2.16;100.00;101128.72;2091109;28;20025;-71
2022/01/10 03:06:54;;;;;;;15.57;10.23;;;;;;;-2.18;100.00;101130.41;2090980;28;20464;-71
2022/01/10 03:07:56;;;;;;;19.23;10.70;;;;;;;-2.11;100.00;101133.91;2091077;28;20541;-70
2022/01/10 03:08:58;;;;;;;15.32;10.73;;;;;;;-2.00;100.00;101141.75;2090272;28;20032;-71
2022/01/10 03:09:58;;;;;;;20.55;9.50;;;;;;;-1.97;100.00;101140.09;2090427;28;20040;-71
2022/01/10 03:10:59;;;;;;;21.57;10.30;;;;;;;-1.94;100.00;101139.28;2091041;28;20045;-70
2022/01/10 03:11:59;;;;;;;23.33;11.27;;;;;;;-1.92;100.00;101142.69;2090300;28;20148;-72
2022/01/10 03:13:00;;;;;;;18.97;10.53;;;;;;;-1.86;100.00;101147.03;2090418;28;20489;-71
2022/01/10 03:14:00;;;;;;;;;;;;;;;-1.83;100.00;101149.66;2091342;28;20065;-71
2022/01/10 03:15:03;;;;;;;15.25;8.32;;;;;;;-1.88;100.00;101147.03;2090893;28;19917;-72
2022/01/10 03:16:03;;;;;;;18.60;10.52;;;;;;;-1.88;100.00;101157.25;2090980;28;20017;-72
2022/01/10 03:17:04;;;;;;;14.63;9.30;;;;;;;-1.86;100.00;101147.03;2091008;28;20016;-72
2022/01/10 03:18:04;;;;;;;21.53;10.17;;;;;;;-1.81;100.00;101156.50;2090963;28;20362;-71
2022/01/10 03:19:04;;;;;;;20.63;10.93;;;;;;;-1.77;100.00;101157.44;2090943;28;20171;-71
2022/01/10 03:20:08;;;;;;;18.13;10.37;;;;;;;-1.72;100.00;101160.03;2090579;28;20436;-71
2022/01/10 03:21:08;;;;;;;14.30;9.88;;;;;;;-1.72;100.00;101160.03;2090227;28;20386;-70
2022/01/10 03:22:09;;;;;;;15.23;10.47;;;;;;;-1.73;100.00;101171.13;2090340;28;20021;-72
2022/01/10 03:23:10;;;;;;;17.88;10.40;;;;;;;-1.76;100.00;101161.69;2090978;28;20103;-71
2022/01/10 03:24:10;;;;;;;18.17;11.40;;;;;;;-1.75;100.00;101165.97;2090994;28;20485;-71
2022/01/10 03:25:10;;;;;;;16.20;10.07;;;;;;;-1.77;100.00;101167.66;2090271;28;20463;-71
2022/01/10 03:26:11;;;;;;;20.77;10.55;;;;;;;-1.74;100.00;101166.84;2090260;28;20036;-71
2022/01/10 03:27:11;;;;;;;18.38;9.85;;;;;;;-1.73;100.00;101169.44;2090906;28;20101;-71
2022/01/10 03:28:14;;;;;;;18.17;10.53;;;;;;;-1.73;100.00;101163.44;2090246;28;20482;-72
2022/01/10 03:29:14;;;;;;;17.33;10.30;;;;;;;-1.73;100.00;101168.56;2090176;28;20031;-72
2022/01/10 03:30:15;;;;;;;19.03;10.90;;;;;;;-1.74;100.00;101171.97;2090967;28;20029;-71
2022/01/10 03:31:16;;;;;;;18.85;10.25;;;;;;;-1.73;100.00;101174.53;2090813;28;20024;-71
2022/01/10 03:32:17;;;;;;;16.77;10.20;;;;;;;-1.70;100.00;101176.28;2090872;28;20029;-71
2022/01/10 03:33:18;;;;;;;18.33;10.48;;;;;;;-1.70;100.00;101178.84;2090898;28;20060;-71
2022/01/10 03:34:18;;;;;;;15.73;10.10;;;;;;;-1.71;100.00;101174.56;2090851;28;20051;-71
2022/01/10 03:35:19;;;;;;;19.60;10.15;;;;;;;-1.70;100.00;101173.72;2090783;28;20040;-72
2022/01/10 03:36:19;;;;;;;16.83;9.80;;;;;;;-1.70;100.00;101176.28;2090838;28;20028;-71
2022/01/10 03:37:19;;;;;;;16.63;9.83;;;;;;;-1.71;100.00;101175.41;2090737;28;20279;-71
2022/01/10 03:38:20;;;;;;;16.13;8.60;;;;;;;-1.71;100.00;101177.97;2090857;28;20021;-72
2022/01/10 03:39:21;;;;;;;16.88;9.07;;;;;;;-1.69;100.00;101175.44;2090768;28;20478;-72
2022/01/10 03:40:21;;;;;;;20.92;11.05;;;;;;;-1.68;100.00;101182.25;2090821;28;20033;-71
2022/01/10 03:41:21;;;;;;;14.80;8.87;;;;;;;-1.66;100.00;101188.28;2090726;28;20053;-72
2022/01/10 03:42:22;;;;;;;17.87;11.17;;;;;;;-1.68;100.00;101187.38;2090089;28;20130;-71
2022/01/10 03:43:22;;;;;;;19.98;10.90;;;;;;;-1.69;100.00;101190.78;2090121;28;20099;-71
2022/01/10 03:44:23;;;;;;;19.63;11.13;;;;;;;-1.69;100.00;101190.78;2090789;28;20033;-71
2022/01/10 03:45:23;;;;;;;15.63;9.93;;;;;;;-1.70;100.00;101195.06;2090722;28;20071;-72
2022/01/10 03:46:23;;;;;;;20.03;10.63;;;;;;;-1.67;100.00;101198.50;2090709;28;20051;-72
2022/01/10 03:47:24;;;;;;;16.60;11.03;;;;;;;-1.65;100.00;101202.78;2090555;28;20410;-71
2022/01/10 03:48:24;;;;;;;17.38;10.50;;;;;;;-1.63;100.00;101200.25;2090731;28;20028;-71
2022/01/10 03:49:25;;;;;;;19.53;9.43;;;;;;;-1.66;100.00;101208.75;2090752;28;20064;-71
2022/01/10 03:50:25;;;;;;;14.73;9.95;;;;;;;-1.67;100.00;101204.50;2090668;28;20105;-71
2022/01/10 03:51:26;;;;;;;19.00;9.90;;;;;;;-1.67;100.00;101208.72;2090669;28;20025;-71
2022/01/10 03:52:27;;;;;;;17.13;10.85;;;;;;;-1.67;100.00;101212.16;2090647;28;20028;-71
2022/01/10 03:53:28;;;;;;;21.45;10.68;;;;;;;-1.66;100.00;101219.00;2090703;28;20075;-71
2022/01/10 03:54:29;;;;;;;;;;;;;;;-1.63;100.00;101216.50;2091064;28;20102;-72
2022/01/10 03:55:29;;;;;;;20.40;9.68;;;;;;;-1.61;100.00;101213.94;2090641;28;19962;-72
2022/01/10 03:56:31;;;;;;;29.30;10.00;;;;;;;-1.60;100.00;101221.66;2090670;28;20505;-72
2022/01/10 03:57:31;;;;;;;;;;;;;;;-1.60;100.00;101226.78;2090329;28;20060;-72
2022/01/10 03:58:31;;;;;;;16.98;9.60;;;;;;;-1.60;100.00;101225.91;2089944;28;19908;-72
2022/01/10 03:59:33;;;;;;;19.30;10.63;;;;;;;-1.61;100.00;101224.19;2090516;28;20547;-71
2022/01/10 04:00:33;;;;;;;22.02;10.23;;;;;;;-1.62;100.00;101225.88;2090533;28;20036;-71
2022/01/10 04:01:39;;;;;;;16.88;9.13;;;;;;;-1.62;100.00;101227.56;2090503;28;20052;-71
2022/01/10 04:02:42;;;;;;;17.58;9.80;;;;;;;-1.65;100.00;101223.28;2090601;28;20025;-71
2022/01/10 04:03:42;;;;;;;18.67;10.25;;;;;;;-1.62;100.00;101230.13;2090538;28;20460;-72
2022/01/10 04:04:43;;;;;;;16.50;10.57;;;;;;;-1.59;100.00;101233.59;2090533;28;20029;-72
2022/01/10 04:05:43;;;;;;;17.37;10.83;;;;;;;-1.54;100.00;101240.50;2089787;28;20033;-71
2022/01/10 04:06:44;;;;;;;21.70;10.77;;;;;;;-1.49;100.00;101241.41;2089746;28;20395;-71
2022/01/10 04:07:45;;;;;;;16.58;10.10;;;;;;;-1.47;100.00;101239.75;2089875;28;20123;-71
2022/01/10 04:08:45;;;;;;;21.58;11.13;;;;;;;-1.48;100.00;101238.00;2090778;28;20040;-71
2022/01/10 04:09:47;;;;;;;18.83;10.40;;;;;;;-1.49;100.00;101238.84;2090907;28;20466;-71
2022/01/10 04:10:47;;;;;;;17.95;10.75;;;;;;;-1.51;100.00;101241.38;2091172;28;20072;-71
2022/01/10 04:11:48;;;;;;;20.73;11.83;;;;;;;-1.52;100.00;101241.34;2090636;28;20047;-72
2022/01/10 04:12:49;;;;;;;20.42;12.02;;;;;;;-1.52;100.00;101244.78;2090759;28;20033;-71
2022/01/10 04:13:49;;;;;;;21.77;11.23;;;;;;;-1.53;100.00;101243.06;2091699;28;20471;-71
2022/01/10 04:14:50;;;;;;;17.00;9.80;;;;;;;-1.54;100.00;101250.72;2091557;28;20118;-71
2022/01/10 04:15:50;;;;;;;18.60;11.40;;;;;;;-1.53;100.00;101247.31;2090810;28;20032;-71
2022/01/10 04:16:51;;;;;;;17.45;11.73;;;;;;;-1.52;100.00;101246.47;2090331;28;20117;-71
2022/01/10 04:17:55;;;;;;;23.73;10.87;;;;;;;-1.53;100.00;101252.44;2089759;28;20529;-71
2022/01/10 04:18:56;;;;;;;19.05;12.02;;;;;;;-1.52;100.00;101246.47;2089783;28;20079;-71
2022/01/10 04:19:56;;;;;;;20.87;11.10;;;;;;;-1.52;100.00;101249.03;2090513;28;20029;-71
2022/01/10 04:20:56;;;;;;;21.93;11.90;;;;;;;-1.51;100.00;101245.66;2089675;28;20059;-71
2022/01/10 04:21:57;;;;;;;14.83;10.10;;;;;;;-1.51;100.00;101250.78;2089725;28;20094;-71
2022/01/10 04:22:57;;;;;;;16.00;9.93;;;;;;;-1.49;100.00;101246.53;2089766;28;20078;-71
2022/01/10 04:23:57;;;;;;;24.70;12.50;;;;;;;-1.47;100.00;101252.53;2089631;28;20144;-71
2022/01/10 04:24:57;;;;;;;19.20;10.97;;;;;;;-1.45;100.00;101250.84;2089735;28;20032;-71
2022/01/10 04:25:58;;;;;;;21.10;11.07;;;;;;;-1.45;100.00;101250.84;2090161;28;20020;-71
2022/01/10 04:26:58;;;;;;;18.73;10.15;;;;;;;-1.46;100.00;101254.25;2090228;28;20052;-71
2022/01/10 04:27:58;;;;;;;19.70;11.20;;;;;;;-1.49;100.00;101259.31;2089620;28;20051;-71
2022/01/10 04:28:59;;;;;;;22.03;12.77;;;;;;;-1.50;100.00;101257.63;2089733;28;20020;-71
2022/01/10 04:29:59;;;;;;;17.23;11.43;;;;;;;-1.49;100.00;101259.31;2090252;28;20363;-71
2022/01/10 04:30:59;;;;;;;15.20;9.73;;;;;;;-1.51;100.00;101261.03;2089593;28;20075;-71
2022/01/10 04:32:00;;;;;;;15.57;10.83;;;;;;;-1.52;100.00;101269.53;2089087;28;20028;-71
2022/01/10 04:33:02;;;;;;;20.60;10.55;;;;;;;-1.52;100.00;101269.53;2090309;28;20096;-71
2022/01/10 04:34:02;;;;;;;17.77;10.70;;;;;;;-1.51;100.00;101266.16;2090292;28;20375;-71
2022/01/10 04:35:03;;;;;;;17.73;10.47;;;;;;;-1.48;100.00;101271.28;2090324;28;20071;-71
2022/01/10 04:36:04;;;;;;;28.33;10.90;;;;;;;-1.46;100.00;101274.75;2090313;28;20021;-71
2022/01/10 04:37:04;;;;;;;18.15;10.77;;;;;;;-1.46;100.00;101273.06;2089552;28;20032;-71
2022/01/10 04:38:05;;;;;;;22.73;11.48;;;;;;;-1.44;100.00;101270.50;2089579;28;20132;-71
2022/01/10 04:39:05;;;;;;;17.87;10.90;;;;;;;-1.46;100.00;101267.94;2089643;28;20032;-70
2022/01/10 04:40:08;;;;;;;18.00;11.90;;;;;;;-1.46;100.00;101273.06;2090302;28;20032;-71
2022/01/10 04:41:09;;;;;;;19.00;10.32;;;;;;;-1.44;100.00;101280.72;2089565;28;20478;-70
2022/01/10 04:42:10;;;;;;;15.25;10.80;;;;;;;-1.44;100.00;101288.41;2089728;28;20410;-71
2022/01/10 04:43:10;;;;;;;15.23;10.43;;;;;;;-1.43;100.00;101285.03;2090250;28;20056;-71
2022/01/10 04:44:10;;;;;;;17.03;10.90;;;;;;;-1.43;100.00;101290.16;2089659;28;20071;-70
2022/01/10 04:45:11;;;;;;;19.30;11.17;;;;;;;-1.41;100.00;101292.75;2089630;28;20494;-71
2022/01/10 04:46:11;;;;;;;22.85;11.93;;;;;;;-1.40;100.00;101290.22;2090259;28;20478;-71
2022/01/10 04:47:12;;;;;;;19.83;10.97;;;;;;;-1.39;100.00;101299.59;2090163;28;20455;-70